sensor_id;sensor_type;location;lat;lon;timestamp;pressure;altitude;pressure_sealevel;temperature;humidity
55418;BME280;41287;47.554;7.844;2023-09-12T00:00:54;97660.81;;;23.96;57.16
55418;BME280;41287;47.554;7.844;2023-09-12T00:03:20;97661.63;;;23.96;57.19
55418;BME280;41287;47.554;7.844;2023-09-12T00:05:57;97659.28;;;23.95;57.27
55418;BME280;41287;47.554;7.844;2023-09-12T00:08:24;97658.88;;;23.96;57.26
55418;BME280;41287;47.554;7.844;2023-09-12T00:11:06;97664.75;;;23.95;57.48
55418;BME280;41287;47.554;7.844;2023-09-12T00:13:35;97663.19;;;23.97;57.15
55418;BME280;41287;47.554;7.844;2023-09-12T00:16:06;97667.09;;;23.96;57.52
55418;BME280;41287;47.554;7.844;2023-09-12T00:18:34;97664.34;;;23.96;57.38
55418;BME280;41287;47.554;7.844;2023-09-12T00:21:00;97663.19;;;23.97;57.28
55418;BME280;41287;47.554;7.844;2023-09-12T00:23:26;97666.72;;;23.98;57.28
55418;BME280;41287;47.554;7.844;2023-09-12T00:25:51;97655.34;;;23.96;57.23
55418;BME280;41287;47.554;7.844;2023-09-12T00:28:17;97661.63;;;23.96;57.29
55418;BME280;41287;47.554;7.844;2023-09-12T00:30:43;97663.56;;;23.96;57.41
55418;BME280;41287;47.554;7.844;2023-09-12T00:33:08;97665.13;;;23.97;57.40
55418;BME280;41287;47.554;7.844;2023-09-12T00:35:33;97669.81;;;23.96;57.25
55418;BME280;41287;47.554;7.844;2023-09-12T00:37:59;97671.78;;;23.96;57.23
55418;BME280;41287;47.554;7.844;2023-09-12T00:40:24;97658.09;;;23.96;57.30
55418;BME280;41287;47.554;7.844;2023-09-12T00:42:49;97662.41;;;23.97;57.54
55418;BME280;41287;47.554;7.844;2023-09-12T00:45:15;97657.31;;;23.95;57.50
55418;BME280;41287;47.554;7.844;2023-09-12T00:47:40;97663.56;;;23.96;57.44
55418;BME280;41287;47.554;7.844;2023-09-12T00:50:06;97665.13;;;23.97;57.52
55418;BME280;41287;47.554;7.844;2023-09-12T00:52:34;97660.47;;;23.97;57.46
55418;BME280;41287;47.554;7.844;2023-09-12T00:55:01;97656.94;;;23.97;57.42
55418;BME280;41287;47.554;7.844;2023-09-12T00:57:30;97658.09;;;23.96;57.46
55418;BME280;41287;47.554;7.844;2023-09-12T00:59:56;97652.63;;;23.96;57.51
55418;BME280;41287;47.554;7.844;2023-09-12T01:02:23;97654.19;;;23.97;57.34
55418;BME280;41287;47.554;7.844;2023-09-12T01:04:49;97651.47;;;23.97;57.59
55418;BME280;41287;47.554;7.844;2023-09-12T01:07:14;97654.19;;;23.97;57.35
55418;BME280;41287;47.554;7.844;2023-09-12T01:09:40;97670.59;;;23.97;57.26
55418;BME280;41287;47.554;7.844;2023-09-12T01:12:06;97667.88;;;23.97;57.45
55418;BME280;41287;47.554;7.844;2023-09-12T01:14:31;97665.94;;;23.97;57.48
55418;BME280;41287;47.554;7.844;2023-09-12T01:16:59;97670.59;;;23.97;57.50
55418;BME280;41287;47.554;7.844;2023-09-12T01:19:29;97670.59;;;23.97;57.54
55418;BME280;41287;47.554;7.844;2023-09-12T01:27:25;97670.97;;;23.95;57.53
55418;BME280;41287;47.554;7.844;2023-09-12T01:29:57;97674.50;;;23.96;57.56
55418;BME280;41287;47.554;7.844;2023-09-12T01:32:26;97678.81;;;23.97;57.50
55418;BME280;41287;47.554;7.844;2023-09-12T01:34:51;97678.03;;;23.96;57.54
55418;BME280;41287;47.554;7.844;2023-09-12T01:37:17;97669.44;;;23.98;57.40
55418;BME280;41287;47.554;7.844;2023-09-12T01:39:44;97670.97;;;23.95;57.49
55418;BME280;41287;47.554;7.844;2023-09-12T01:42:13;97667.88;;;23.97;57.29
55418;BME280;41287;47.554;7.844;2023-09-12T01:44:44;97673.34;;;23.97;57.64
55418;BME280;41287;47.554;7.844;2023-09-12T01:47:11;97667.88;;;23.97;57.45
55418;BME280;41287;47.554;7.844;2023-09-12T01:49:40;97667.09;;;23.96;57.42
55418;BME280;41287;47.554;7.844;2023-09-12T01:52:07;97671.78;;;23.96;57.61
55418;BME280;41287;47.554;7.844;2023-09-12T01:54:34;97675.28;;;23.96;57.53
55418;BME280;41287;47.554;7.844;2023-09-12T01:57:00;97672.56;;;23.96;57.50
55418;BME280;41287;47.554;7.844;2023-09-12T01:59:26;97674.13;;;23.97;57.67
55418;BME280;41287;47.554;7.844;2023-09-12T02:01:51;97677.25;;;23.96;57.64
55418;BME280;41287;47.554;7.844;2023-09-12T02:04:17;97676.88;;;23.97;57.61
55418;BME280;41287;47.554;7.844;2023-09-12T02:06:42;97677.25;;;23.96;57.49
55418;BME280;41287;47.554;7.844;2023-09-12T02:09:09;97675.28;;;23.96;57.38
55418;BME280;41287;47.554;7.844;2023-09-12T02:11:36;97676.09;;;23.97;57.38
55418;BME280;41287;47.554;7.844;2023-09-12T02:14:01;97679.59;;;23.97;57.45
55418;BME280;41287;47.554;7.844;2023-09-12T02:16:27;97675.28;;;23.96;57.48
55418;BME280;41287;47.554;7.844;2023-09-12T02:18:52;97672.56;;;23.96;57.71
55418;BME280;41287;47.554;7.844;2023-09-12T02:21:18;97674.50;;;23.96;57.41
55418;BME280;41287;47.554;7.844;2023-09-12T02:23:45;97671.78;;;23.96;57.58
55418;BME280;41287;47.554;7.844;2023-09-12T02:26:10;97675.28;;;23.96;57.63
55418;BME280;41287;47.554;7.844;2023-09-12T02:28:36;97678.03;;;23.96;57.54
55418;BME280;41287;47.554;7.844;2023-09-12T02:31:01;97680.78;;;23.96;57.56
55418;BME280;41287;47.554;7.844;2023-09-12T02:33:28;97676.09;;;23.97;57.63
55418;BME280;41287;47.554;7.844;2023-09-12T02:35:54;97679.59;;;23.97;57.43
55418;BME280;41287;47.554;7.844;2023-09-12T02:38:19;97675.28;;;23.96;57.47
55418;BME280;41287;47.554;7.844;2023-09-12T02:40:44;97681.56;;;23.97;57.54
55418;BME280;41287;47.554;7.844;2023-09-12T02:43:09;97673.34;;;23.97;57.59
55418;BME280;41287;47.554;7.844;2023-09-12T02:45:37;97676.09;;;23.97;57.39
55418;BME280;41287;47.554;7.844;2023-09-12T02:48:03;97665.94;;;23.97;57.39
55418;BME280;41287;47.554;7.844;2023-09-12T02:50:28;97659.66;;;23.97;57.48
55418;BME280;41287;47.554;7.844;2023-09-12T02:52:53;97666.72;;;23.98;57.61
55418;BME280;41287;47.554;7.844;2023-09-12T02:55:19;97655.34;;;23.96;57.51
55418;BME280;41287;47.554;7.844;2023-09-12T02:57:44;97662.41;;;23.97;57.64
55418;BME280;41287;47.554;7.844;2023-09-12T03:00:10;97665.94;;;23.97;57.59
55418;BME280;41287;47.554;7.844;2023-09-12T03:02:36;97659.66;;;23.97;57.36
55418;BME280;41287;47.554;7.844;2023-09-12T03:05:01;97662.41;;;23.97;57.63
55418;BME280;41287;47.554;7.844;2023-09-12T03:07:27;97665.13;;;23.97;57.71
55418;BME280;41287;47.554;7.844;2023-09-12T03:09:52;97664.34;;;23.96;57.73
55418;BME280;41287;47.554;7.844;2023-09-12T03:12:19;97667.88;;;23.97;57.87
55418;BME280;41287;47.554;7.844;2023-09-12T03:14:46;97663.19;;;23.97;57.56
55418;BME280;41287;47.554;7.844;2023-09-12T03:17:11;97662.41;;;23.97;57.96
55418;BME280;41287;47.554;7.844;2023-09-12T03:19:38;97667.88;;;23.97;57.62
55418;BME280;41287;47.554;7.844;2023-09-12T03:22:04;97661.63;;;23.96;57.80
55418;BME280;41287;47.554;7.844;2023-09-12T03:24:29;97661.63;;;23.96;57.74
55418;BME280;41287;47.554;7.844;2023-09-12T03:26:54;97660.81;;;23.96;57.66
55418;BME280;41287;47.554;7.844;2023-09-12T03:29:20;97656.13;;;23.96;57.61
55418;BME280;41287;47.554;7.844;2023-09-12T03:31:46;97645.97;;;23.97;57.80
55418;BME280;41287;47.554;7.844;2023-09-12T03:34:11;97650.66;;;23.96;57.60
55418;BME280;41287;47.554;7.844;2023-09-12T03:36:36;97651.81;;;23.95;57.83
55418;BME280;41287;47.554;7.844;2023-09-12T03:39:01;97649.88;;;23.96;57.68
55418;BME280;41287;47.554;7.844;2023-09-12T03:41:30;97652.63;;;23.96;57.70
55418;BME280;41287;47.554;7.844;2023-09-12T03:43:56;97645.97;;;23.97;57.71
55418;BME280;41287;47.554;7.844;2023-09-12T03:46:21;97645.97;;;23.97;57.70
55418;BME280;41287;47.554;7.844;2023-09-12T03:48:47;97642.47;;;23.96;57.73
55418;BME280;41287;47.554;7.844;2023-09-12T03:51:12;97640.50;;;23.97;57.82
55418;BME280;41287;47.554;7.844;2023-09-12T03:53:40;97643.63;;;23.95;57.66
55418;BME280;41287;47.554;7.844;2023-09-12T03:56:05;97641.66;;;23.96;57.83
55418;BME280;41287;47.554;7.844;2023-09-12T03:58:31;97640.88;;;23.95;57.75
55418;BME280;41287;47.554;7.844;2023-09-12T04:00:57;97650.66;;;23.96;57.55
55418;BME280;41287;47.554;7.844;2023-09-12T04:03:22;97652.25;;;23.97;57.70
55418;BME280;41287;47.554;7.844;2023-09-12T04:05:48;97652.25;;;23.97;57.66
55418;BME280;41287;47.554;7.844;2023-09-12T04:08:13;97632.28;;;23.97;58.09
55418;BME280;41287;47.554;7.844;2023-09-12T04:10:39;97646.41;;;23.99;57.85
55418;BME280;41287;47.554;7.844;2023-09-12T04:13:04;97649.56;;;24.05;58.17
55418;BME280;41287;47.554;7.844;2023-09-12T04:15:29;97655.47;;;24.10;58.46
55418;BME280;41287;47.554;7.844;2023-09-12T04:17:56;97655.13;;;24.15;59.13
55418;BME280;41287;47.554;7.844;2023-09-12T04:20:23;97651.63;;;24.18;59.75
55418;BME280;41287;47.554;7.844;2023-09-12T04:22:48;97652.84;;;24.21;60.46
55418;BME280;41287;47.554;7.844;2023-09-12T04:25:14;97654.81;;;24.24;61.47
55418;BME280;41287;47.554;7.844;2023-09-12T04:27:41;97656.78;;;24.27;62.08
55418;BME280;41287;47.554;7.844;2023-09-12T04:30:07;97662.28;;;24.30;62.48
55418;BME280;41287;47.554;7.844;2023-09-12T04:32:32;97663.06;;;24.27;60.66
55418;BME280;41287;47.554;7.844;2023-09-12T04:34:58;97664.63;;;24.28;58.96
55418;BME280;41287;47.554;7.844;2023-09-12T04:37:23;97670.50;;;24.30;57.24
55418;BME280;41287;47.554;7.844;2023-09-12T04:39:48;97674.06;;;24.34;55.88
55418;BME280;41287;47.554;7.844;2023-09-12T04:42:14;97670.53;;;24.37;54.80
55418;BME280;41287;47.554;7.844;2023-09-12T04:44:40;97669.44;;;24.46;53.80
55418;BME280;41287;47.554;7.844;2023-09-12T04:47:06;97667.88;;;24.48;53.10
55418;BME280;41287;47.554;7.844;2023-09-12T04:49:31;97670.63;;;24.52;52.24
55418;BME280;41287;47.554;7.844;2023-09-12T04:51:57;97666.75;;;24.56;51.75
55418;BME280;41287;47.554;7.844;2023-09-12T04:54:22;97668.72;;;24.59;51.32
55418;BME280;41287;47.554;7.844;2023-09-12T04:56:48;97656.22;;;24.62;51.01
55418;BME280;41287;47.554;7.844;2023-09-12T04:59:13;97657.00;;;24.62;51.23
55418;BME280;41287;47.554;7.844;2023-09-12T05:01:40;97664.81;;;24.64;51.02
55418;BME280;41287;47.554;7.844;2023-09-12T05:04:07;97664.44;;;24.65;50.54
55418;BME280;41287;47.554;7.844;2023-09-12T05:06:33;97671.13;;;24.68;50.24
55418;BME280;41287;47.554;7.844;2023-09-12T05:08:59;97664.84;;;24.67;50.76
55418;BME280;41287;47.554;7.844;2023-09-12T05:11:24;97669.97;;;24.69;50.31
55418;BME280;41287;47.554;7.844;2023-09-12T05:13:50;97680.13;;;24.68;50.55
55418;BME280;41287;47.554;7.844;2023-09-12T05:16:15;97677.38;;;24.68;50.92
55418;BME280;41287;47.554;7.844;2023-09-12T05:18:41;97677.34;;;24.65;51.25
55418;BME280;41287;47.554;7.844;2023-09-12T05:21:06;97678.53;;;24.64;51.30
55418;BME280;41287;47.554;7.844;2023-09-12T05:23:32;97680.50;;;24.67;50.79
55418;BME280;41287;47.554;7.844;2023-09-12T05:25:57;97682.88;;;24.68;50.06
55418;BME280;41287;47.554;7.844;2023-09-12T05:28:23;97687.56;;;24.71;50.06
55418;BME280;41287;47.554;7.844;2023-09-12T05:30:51;97695.41;;;24.69;50.30
55418;BME280;41287;47.554;7.844;2023-09-12T05:33:16;97698.53;;;24.68;50.78
55418;BME280;41287;47.554;7.844;2023-09-12T05:35:42;97702.00;;;24.65;50.99
55418;BME280;41287;47.554;7.844;2023-09-12T05:38:07;97703.59;;;24.66;50.94
55418;BME280;41287;47.554;7.844;2023-09-12T05:40:33;97700.47;;;24.67;50.19
55418;BME280;41287;47.554;7.844;2023-09-12T05:42:58;97705.16;;;24.70;49.49
55418;BME280;41287;47.554;7.844;2023-09-12T05:45:24;97703.22;;;24.71;49.86
55418;BME280;41287;47.554;7.844;2023-09-12T05:47:49;97705.56;;;24.69;50.17
55418;BME280;41287;47.554;7.844;2023-09-12T05:50:18;97711.81;;;24.66;50.52
55418;BME280;41287;47.554;7.844;2023-09-12T05:52:43;97715.72;;;24.65;50.93
55418;BME280;41287;47.554;7.844;2023-09-12T05:55:09;97721.19;;;24.65;50.77
55418;BME280;41287;47.554;7.844;2023-09-12T05:57:34;97716.91;;;24.67;49.91
55418;BME280;41287;47.554;7.844;2023-09-12T06:00:03;97713.78;;;24.69;49.56
55418;BME280;41287;47.554;7.844;2023-09-12T06:02:35;97712.63;;;24.70;49.98
55418;BME280;41287;47.554;7.844;2023-09-12T06:05:00;97719.28;;;24.72;49.79
55418;BME280;41287;47.554;7.844;2023-09-12T06:07:25;97718.13;;;24.70;50.15
55418;BME280;41287;47.554;7.844;2023-09-12T06:09:51;97718.50;;;24.68;50.69
55418;BME280;41287;47.554;7.844;2023-09-12T06:12:18;97720.03;;;24.66;50.82
55418;BME280;41287;47.554;7.844;2023-09-12T06:14:44;97723.94;;;24.65;51.12
55418;BME280;41287;47.554;7.844;2023-09-12T06:17:09;97723.94;;;24.65;50.92
55418;BME280;41287;47.554;7.844;2023-09-12T06:19:34;97720.03;;;24.66;49.99
55418;BME280;41287;47.554;7.844;2023-09-12T06:22:00;97714.59;;;24.69;49.36
55418;BME280;41287;47.554;7.844;2023-09-12T06:24:25;97710.28;;;24.72;49.52
55418;BME280;41287;47.554;7.844;2023-09-12T06:26:51;97708.31;;;24.72;49.73
55418;BME280;41287;47.554;7.844;2023-09-12T06:29:16;97713.81;;;24.72;49.85
55418;BME280;41287;47.554;7.844;2023-09-12T06:31:42;97713.00;;;24.68;50.11
55418;BME280;41287;47.554;7.844;2023-09-12T06:34:08;97710.66;;;24.67;50.46
55418;BME280;41287;47.554;7.844;2023-09-12T06:36:33;97706.34;;;24.66;50.63
55418;BME280;41287;47.554;7.844;2023-09-12T06:38:59;97707.50;;;24.65;50.92
55418;BME280;41287;47.554;7.844;2023-09-12T06:41:26;97696.94;;;24.67;50.10
55418;BME280;41287;47.554;7.844;2023-09-12T06:43:53;97691.09;;;24.68;49.25
55418;BME280;41287;47.554;7.844;2023-09-12T06:46:22;97695.78;;;24.71;49.21
55418;BME280;41287;47.554;7.844;2023-09-12T06:48:47;97714.97;;;24.71;49.72
55418;BME280;41287;47.554;7.844;2023-09-12T06:51:15;97711.84;;;24.69;49.88
55418;BME280;41287;47.554;7.844;2023-09-12T06:53:41;97716.91;;;24.67;50.03
55418;BME280;41287;47.554;7.844;2023-09-12T06:56:06;97718.88;;;24.67;50.57
55418;BME280;41287;47.554;7.844;2023-09-12T06:58:32;97725.13;;;24.67;50.23
55418;BME280;41287;47.554;7.844;2023-09-12T07:01:04;97715.75;;;24.68;49.39
55418;BME280;41287;47.554;7.844;2023-09-12T07:03:34;97723.59;;;24.73;48.98
55418;BME280;41287;47.554;7.844;2023-09-12T07:06:00;97722.81;;;24.73;49.22
55418;BME280;41287;47.554;7.844;2023-09-12T07:08:26;97723.97;;;24.72;49.69
55418;BME280;41287;47.554;7.844;2023-09-12T07:10:51;97720.84;;;24.70;49.68
55418;BME280;41287;47.554;7.844;2023-09-12T07:13:19;97717.69;;;24.68;50.18
55418;BME280;41287;47.554;7.844;2023-09-12T07:15:44;97722.78;;;24.66;50.46
55418;BME280;41287;47.554;7.844;2023-09-12T07:18:12;97720.44;;;24.68;49.86
55418;BME280;41287;47.554;7.844;2023-09-12T07:20:40;97717.31;;;24.69;49.14
55418;BME280;41287;47.554;7.844;2023-09-12T07:23:06;97724.38;;;24.74;49.15
55418;BME280;41287;47.554;7.844;2023-09-12T07:25:37;97720.06;;;24.73;49.29
55418;BME280;41287;47.554;7.844;2023-09-12T07:28:02;97720.84;;;24.70;49.42
55418;BME280;41287;47.554;7.844;2023-09-12T07:30:30;97707.53;;;24.68;49.78
55418;BME280;41287;47.554;7.844;2023-09-12T07:32:57;97714.53;;;24.66;50.07
55418;BME280;41287;47.554;7.844;2023-09-12T07:35:22;97719.25;;;24.65;50.40
55418;BME280;41287;47.554;7.844;2023-09-12T07:37:49;97725.13;;;24.67;49.57
55418;BME280;41287;47.554;7.844;2023-09-12T07:40:15;97728.66;;;24.71;48.87
55418;BME280;41287;47.554;7.844;2023-09-12T07:42:40;97720.88;;;24.73;49.06
55418;BME280;41287;47.554;7.844;2023-09-12T07:45:06;97722.03;;;24.72;49.20
55418;BME280;41287;47.554;7.844;2023-09-12T07:47:32;97726.34;;;24.70;49.31
55418;BME280;41287;47.554;7.844;2023-09-12T07:49:58;97725.53;;;24.69;49.61
55418;BME280;41287;47.554;7.844;2023-09-12T07:52:28;97724.34;;;24.67;50.06
55418;BME280;41287;47.554;7.844;2023-09-12T07:54:59;97726.66;;;24.65;50.23
55418;BME280;41287;47.554;7.844;2023-09-12T07:57:24;97723.97;;;24.68;49.39
55418;BME280;41287;47.554;7.844;2023-09-12T07:59:50;97724.75;;;24.72;48.86
55418;BME280;41287;47.554;7.844;2023-09-12T08:02:15;97729.88;;;24.74;48.57
55418;BME280;41287;47.554;7.844;2023-09-12T08:04:42;97724.38;;;24.74;49.21
55418;BME280;41287;47.554;7.844;2023-09-12T08:07:10;97720.06;;;24.69;49.35
55418;BME280;41287;47.554;7.844;2023-09-12T08:09:55;97722.78;;;24.66;49.61
55418;BME280;41287;47.554;7.844;2023-09-12T08:12:22;97731.78;;;24.66;50.00
55418;BME280;41287;47.554;7.844;2023-09-12T08:14:47;97727.09;;;24.67;49.95
55418;BME280;41287;47.554;7.844;2023-09-12T08:17:13;97725.13;;;24.67;49.41
55418;BME280;41287;47.554;7.844;2023-09-12T08:19:39;97730.25;;;24.72;48.78
55418;BME280;41287;47.554;7.844;2023-09-12T08:22:07;97727.13;;;24.74;48.86
55418;BME280;41287;47.554;7.844;2023-09-12T08:24:33;97719.28;;;24.72;49.15
55418;BME280;41287;47.554;7.844;2023-09-12T08:26:59;97723.19;;;24.71;49.21
55418;BME280;41287;47.554;7.844;2023-09-12T08:29:25;97709.47;;;24.68;49.52
55418;BME280;41287;47.554;7.844;2023-09-12T08:31:52;97717.69;;;24.68;49.68
55418;BME280;41287;47.554;7.844;2023-09-12T08:34:18;97709.06;;;24.66;50.14
55418;BME280;41287;47.554;7.844;2023-09-12T08:36:45;97722.41;;;24.67;49.48
55418;BME280;41287;47.554;7.844;2023-09-12T08:39:16;97717.31;;;24.69;48.60
55418;BME280;41287;47.554;7.844;2023-09-12T08:41:44;97724.38;;;24.74;48.55
55418;BME280;41287;47.554;7.844;2023-09-12T08:44:12;97723.97;;;24.72;48.75
55418;BME280;41287;47.554;7.844;2023-09-12T08:46:37;97723.97;;;24.72;49.08
55418;BME280;41287;47.554;7.844;2023-09-12T08:49:04;97723.97;;;24.68;49.58
55418;BME280;41287;47.554;7.844;2023-09-12T08:51:31;97720.44;;;24.68;49.62
55418;BME280;41287;47.554;7.844;2023-09-12T08:53:57;97720.81;;;24.66;49.83
55418;BME280;41287;47.554;7.844;2023-09-12T08:56:23;97721.59;;;24.67;49.51
55418;BME280;41287;47.554;7.844;2023-09-12T08:58:49;97726.34;;;24.70;48.74
55418;BME280;41287;47.554;7.844;2023-09-12T09:01:18;97728.28;;;24.73;48.35
55418;BME280;41287;47.554;7.844;2023-09-12T09:03:43;97729.09;;;24.73;48.65
55418;BME280;41287;47.554;7.844;2023-09-12T09:06:10;97729.47;;;24.72;48.91
55418;BME280;41287;47.554;7.844;2023-09-12T09:08:36;97726.34;;;24.70;49.18
55418;BME280;41287;47.554;7.844;2023-09-12T09:11:02;97723.19;;;24.68;49.42
55418;BME280;41287;47.554;7.844;2023-09-12T09:13:29;97717.28;;;24.66;49.85
55418;BME280;41287;47.554;7.844;2023-09-12T09:16:16;97715.72;;;24.65;49.74
55418;BME280;41287;47.554;7.844;2023-09-12T09:21:18;97716.16;;;24.74;48.61
55418;BME280;41287;47.554;7.844;2023-09-12T09:23:45;97712.63;;;24.73;48.31
55418;BME280;41287;47.554;7.844;2023-09-12T09:26:13;97707.53;;;24.72;48.67
55418;BME280;41287;47.554;7.844;2023-09-12T09:28:39;97715.38;;;24.70;48.94
55418;BME280;41287;47.554;7.844;2023-09-12T09:31:10;97713.78;;;24.69;49.05
55418;BME280;41287;47.554;7.844;2023-09-12T09:33:41;97711.44;;;24.67;49.52
55418;BME280;41287;47.554;7.844;2023-09-12T09:36:10;97707.13;;;24.66;49.83
55418;BME280;41287;47.554;7.844;2023-09-12T09:38:36;97709.47;;;24.68;49.27
55418;BME280;41287;47.554;7.844;2023-09-12T09:41:06;97714.97;;;24.71;48.47
55418;BME280;41287;47.554;7.844;2023-09-12T09:43:31;97702.84;;;24.72;48.41
55418;BME280;41287;47.554;7.844;2023-09-12T09:45:59;97698.94;;;24.73;48.71
55418;BME280;41287;47.554;7.844;2023-09-12T09:48:25;97702.47;;;24.74;48.79
55418;BME280;41287;47.554;7.844;2023-09-12T09:50:53;97698.16;;;24.73;49.04
55418;BME280;41287;47.554;7.844;2023-09-12T09:53:31;97695.00;;;24.67;49.26
55418;BME280;41287;47.554;7.844;2023-09-12T09:56:15;97694.22;;;24.67;49.50
55418;BME280;41287;47.554;7.844;2023-09-12T09:58:56;97693.00;;;24.64;49.71
55418;BME280;41287;47.554;7.844;2023-09-12T10:01:29;97694.59;;;24.65;50.04
55418;BME280;41287;47.554;7.844;2023-09-12T10:04:00;97690.69;;;24.66;49.06
55418;BME280;41287;47.554;7.844;2023-09-12T10:06:27;97684.03;;;24.71;48.34
55418;BME280;41287;47.554;7.844;2023-09-12T10:08:53;97681.72;;;24.73;48.11
55418;BME280;41287;47.554;7.844;2023-09-12T10:11:24;97682.88;;;24.72;48.46
55418;BME280;41287;47.554;7.844;2023-09-12T10:13:53;97674.28;;;24.70;48.81
55418;BME280;41287;47.554;7.844;2023-09-12T10:16:20;97673.50;;;24.69;48.95
55418;BME280;41287;47.554;7.844;2023-09-12T10:21:45;97669.56;;;24.67;49.56
55418;BME280;41287;47.554;7.844;2023-09-12T10:24:12;97664.84;;;24.67;48.88
55418;BME280;41287;47.554;7.844;2023-09-12T10:26:38;97662.91;;;24.71;48.40
55418;BME280;41287;47.554;7.844;2023-09-12T10:29:08;97655.88;;;24.74;48.06
55418;BME280;41287;47.554;7.844;2023-09-12T10:31:35;97661.38;;;24.74;48.21
55418;BME280;41287;47.554;7.844;2023-09-12T10:34:01;97665.28;;;24.73;48.47
55418;BME280;41287;47.554;7.844;2023-09-12T10:36:27;97666.44;;;24.72;48.75
55418;BME280;41287;47.554;7.844;2023-09-12T10:38:54;97662.53;;;24.69;48.99
55418;BME280;41287;47.554;7.844;2023-09-12T10:41:21;97663.69;;;24.68;49.05
55418;BME280;41287;47.554;7.844;2023-09-12T10:43:48;97659.38;;;24.67;49.49
55418;BME280;41287;47.554;7.844;2023-09-12T10:46:19;97659.00;;;24.69;49.08
55418;BME280;41287;47.554;7.844;2023-09-12T10:48:48;97657.06;;;24.73;48.28
55418;BME280;41287;47.554;7.844;2023-09-12T10:51:15;97657.47;;;24.75;48.07
55418;BME280;41287;47.554;7.844;2023-09-12T10:53:48;97656.69;;;24.74;48.23
55418;BME280;41287;47.554;7.844;2023-09-12T10:56:20;97653.16;;;24.74;48.28
55418;BME280;41287;47.554;7.844;2023-09-12T10:59:08;97644.50;;;24.68;48.64
55418;BME280;41287;47.554;7.844;2023-09-12T11:01:38;97644.91;;;24.70;48.97
55418;BME280;41287;47.554;7.844;2023-09-12T11:06:48;97642.94;;;24.67;49.66
55418;BME280;41287;47.554;7.844;2023-09-12T11:11:43;97639.81;;;24.72;47.95
55418;BME280;41287;47.554;7.844;2023-09-12T11:14:09;97639.44;;;24.74;48.00
55418;BME280;41287;47.554;7.844;2023-09-12T11:16:38;97639.44;;;24.74;48.17
55418;BME280;41287;47.554;7.844;2023-09-12T11:19:16;97634.72;;;24.71;48.47
55418;BME280;41287;47.554;7.844;2023-09-12T11:21:47;97634.34;;;24.72;48.51
55418;BME280;41287;47.554;7.844;2023-09-12T11:24:14;97635.91;;;24.70;48.90
55418;BME280;41287;47.554;7.844;2023-09-12T11:26:59;97640.56;;;24.66;49.07
55418;BME280;41287;47.554;7.844;2023-09-12T11:29:37;97637.84;;;24.66;49.16
55418;BME280;41287;47.554;7.844;2023-09-12T11:32:03;97637.47;;;24.71;48.36
55418;BME280;41287;47.554;7.844;2023-09-12T11:34:42;97632.38;;;24.73;47.73
55418;BME280;41287;47.554;7.844;2023-09-12T11:37:08;97630.06;;;24.75;47.92
55418;BME280;41287;47.554;7.844;2023-09-12T11:39:35;97638.66;;;24.73;48.14
55418;BME280;41287;47.554;7.844;2023-09-12T11:42:02;97635.13;;;24.73;48.38
55418;BME280;41287;47.554;7.844;2023-09-12T11:44:29;97622.59;;;24.72;48.74
55418;BME280;41287;47.554;7.844;2023-09-12T11:47:01;97620.66;;;24.69;48.88
55418;BME280;41287;47.554;7.844;2023-09-12T11:49:38;97622.97;;;24.67;49.19
55418;BME280;41287;47.554;7.844;2023-09-12T11:52:08;97620.22;;;24.67;49.16
55418;BME280;41287;47.554;7.844;2023-09-12T11:54:34;97616.75;;;24.70;48.43
55418;BME280;41287;47.554;7.844;2023-09-12T11:57:02;97620.25;;;24.74;47.78
55418;BME280;41287;47.554;7.844;2023-09-12T11:59:28;97621.47;;;24.76;47.91
55418;BME280;41287;47.554;7.844;2023-09-12T12:01:54;97623.78;;;24.74;48.14
55418;BME280;41287;47.554;7.844;2023-09-12T12:04:24;97623.38;;;24.72;48.37
55418;BME280;41287;47.554;7.844;2023-09-12T12:06:52;97625.34;;;24.72;48.63
55418;BME280;41287;47.554;7.844;2023-09-12T12:09:18;97621.03;;;24.71;48.89
55418;BME280;41287;47.554;7.844;2023-09-12T12:11:45;97615.16;;;24.69;48.89
55418;BME280;41287;47.554;7.844;2023-09-12T12:14:12;97621.81;;;24.68;49.16
55418;BME280;41287;47.554;7.844;2023-09-12T12:16:39;97616.31;;;24.71;48.56
55418;BME280;41287;47.554;7.844;2023-09-12T12:19:04;97610.88;;;24.75;47.98
55418;BME280;41287;47.554;7.844;2023-09-12T12:21:29;97608.94;;;24.75;47.75
55418;BME280;41287;47.554;7.844;2023-09-12T12:24:02;97598.34;;;24.74;47.94
55418;BME280;41287;47.554;7.844;2023-09-12T12:26:30;97596.41;;;24.74;48.33
55418;BME280;41287;47.554;7.844;2023-09-12T12:28:55;97590.50;;;24.72;48.48
55418;BME280;41287;47.554;7.844;2023-09-12T12:31:22;97586.19;;;24.71;48.63
55418;BME280;41287;47.554;7.844;2023-09-12T12:33:52;97583.84;;;24.70;48.80
55418;BME280;41287;47.554;7.844;2023-09-12T12:36:18;97586.97;;;24.68;49.02
55418;BME280;41287;47.554;7.844;2023-09-12T12:38:46;97589.34;;;24.70;48.75
55418;BME280;41287;47.554;7.844;2023-09-12T12:41:16;97584.66;;;24.74;47.61
55418;BME280;41287;47.554;7.844;2023-09-12T12:43:43;97585.06;;;24.76;47.70
55418;BME280;41287;47.554;7.844;2023-09-12T12:46:12;97582.31;;;24.76;47.68
55418;BME280;41287;47.554;7.844;2023-09-12T12:48:38;97577.63;;;24.76;48.03
55418;BME280;41287;47.554;7.844;2023-09-12T12:51:14;97585.03;;;24.72;48.15
55418;BME280;41287;47.554;7.844;2023-09-12T12:53:45;97576.81;;;24.72;48.37
55418;BME280;41287;47.554;7.844;2023-09-12T12:56:12;97581.50;;;24.72;48.63
55418;BME280;41287;47.554;7.844;2023-09-12T12:58:39;97579.91;;;24.71;48.85
55418;BME280;41287;47.554;7.844;2023-09-12T13:01:04;97570.16;;;24.70;48.94
55418;BME280;41287;47.554;7.844;2023-09-12T13:03:31;97582.69;;;24.74;48.12
55418;BME280;41287;47.554;7.844;2023-09-12T13:05:57;97574.09;;;24.76;47.65
55418;BME280;41287;47.554;7.844;2023-09-12T13:08:22;97576.41;;;24.77;47.53
55418;BME280;41287;47.554;7.844;2023-09-12T13:10:47;97572.13;;;24.76;47.86
55418;BME280;41287;47.554;7.844;2023-09-12T13:13:12;97565.88;;;24.76;47.91
55418;BME280;41287;47.554;7.844;2023-09-12T13:15:38;97564.69;;;24.73;48.27